Anchorage, AK (99517)

12:59 PM AKDT on September 21, 2014 (GMT -0800)
West Turnagain | Change Station
CLOSE
Current Station
Personal Weather Station
Location: Anchorage, AK
Elevation: 66 ft
Nearby Weather Stations

Elev 66 ft 61.20 °N, 149.96 °W | Updated 3 minutes ago

Partly Cloudy
Partly Cloudy
50.1 °F
Feels Like 50.1 °F
N
2.0
Wind Variable Wind from NNE
Gusts 3.0 mph

Today
High -- | Low -- °F
--% Chance of Precip.
Yesterday
High -- | Low -- °F
Precip. -- in
7:41 AM 8:02 PM
Waning Crescent, 5% visible
Pressure 29.54 in
Visibility 10.0 miles
Clouds Few 6500 ft
Dew Point 46 °F
Humidity 85%
Rainfall 0.00 in
Snow Depth 0 in , 0 in , 2 in
UV 3 out of 12
Pollen Not available.
Air Quality Not available.
Flu Activity Not available.
METAR PALH 212053Z 35003KT 10SM FEW065 13/07 A2953 RMK AO2 SLP001 60000 T01280067 58021

More Conditions Fewer Conditions

Pressure 29.54 in
Visibility 10.0 miles
Clouds Few 6500 ft
Dew Point 46 °F
Humidity 85%
Rainfall 0.00 in
Snow Depth 0 in , 0 in , 2 in
UV 3 out of 12
Pollen Not available.
Air Quality Not available.
Flu Activity Not available.
METAR PALH 212053Z 35003KT 10SM FEW065 13/07 A2953 RMK AO2 SLP001 60000 T01280067 58021

More Conditions Fewer Conditions

10-Day Weather Forecast

Almanac

Astronomy

Sep. 21, 2014 Rise Set
Actual Time 7:41 AM AKDT 8:02 PM AKDT
Civil Twilight 6:58 AM AKDT 8:45 PM AKDT
Nautical Twilight 6:05 AM AKDT 9:37 PM AKDT
Astronomical Twilight 5:07 AM AKDT 10:35 PM AKDT
Moon 4:55 AM AKDT 7:04 PM AKDT
Length of Visible Light 13h 46m
Length of Day
12h 20m
Tomorrow will be 5m 39s shorter.
Waning Crescent, 5% of the Moon is Illuminated
Today
Waning Crescent
Sep 24
New
Oct 1
First Quarter
Oct 8
Full
Oct 15
Last Quarter

Today's Extremes

State Highs State Lows

Community

WunderPhotos

Upload Photos

1,755,250 photos uploaded!

Nearby

Snow Depth

Station Depth Elevation
Upper Tsaina River 0 in 1750 ft
Long Lake 0 in 820 ft
Turnagain Pass 2 in 1880 ft
Summit Creek 0 in 1400 ft
Rocky Point 6 in 500 ft

Earthquake Activity

City Distance Mag. Time & Date
No recent earthquake activity has been reported nearby.
Minimum magnitude displayed is 2.5.

Coastal Water Temperatures

Place Temperature
No Stations Reporting

Nearby Weather Stations